X  Close Metar Aviation Weather Data        LGTS Thessaloniki Macedonia International
Temperature
45°F Temperature
45°F Dewpoint
100% Humidity



Wind
3 MPH
6 KM/H
1 M/S
3 KTS



120°
ESE
Current Conditions

Mostly Cloudy with Fog Mostly Cloudy , Fog
Pressure 1017 (hPa) - 30.03 (inHg)
Visibility 0 (mile) - 0 (km)
Airport
Airport-code LGTS

Location: Thessaloniki Macedonia International
Distance: 85 (mi)

Metar:
METAR LGTS 230620Z 12003KT 0100 R10/0225 R28/0175 FG BKN001 07/07 Q1017 NOSIG

Time: 23-02-2024 08:20 EET